Time;durP1;ratioP1;P1;durP2;ratioP2;P2;SDS_P1;SDS_P2;PMS_P1;PMS_P2;Temp;Humidity;BMP_temperature;BMP_pressure;BME280_temperature;BME280_humidity;BME280_pressure;Samples;Min_cycle;Max_cycle;Signal;HPM_P1;HPM_P2
2022/01/21 00:01:20;;;;;;;1999.90;999.90;;;;;;;-1.35;100.00;162039.84;4970054;28;20085;-68
2022/01/21 00:03:48;;;;;;;1999.90;999.90;;;;;;;-1.74;100.00;161936.03;4971796;28;20141;-67
2022/01/21 00:06:15;;;;;;;1999.90;999.90;;;;;;;-1.48;100.00;162005.69;4968497;28;20074;-68
2022/01/21 00:08:43;;;;;;;1999.90;999.90;;;;;;;-1.85;100.00;161908.72;4969796;28;20058;-67
2022/01/21 00:11:12;;;;;;;1999.90;999.90;;;;;;;-1.96;100.00;161880.06;4969951;28;20102;-67
2022/01/21 00:13:39;;;;;;;1999.90;999.90;;;;;;;-1.79;100.00;161925.16;4968612;28;20081;-67
2022/01/21 00:16:09;;;;;;;1999.90;999.90;;;;;;;-1.54;100.00;161990.66;4969558;28;20051;-68
2022/01/21 00:18:38;;;;;;;1999.90;999.90;;;;;;;-1.71;100.00;161945.63;4968520;28;20384;-67
2022/01/21 00:32:08;;;;;;;1999.90;999.90;;;;;;;-1.66;100.00;161957.91;4965432;28;20121;-67
2022/01/21 00:34:36;;;;;;;1999.90;999.90;;;;;;;-1.65;100.00;161960.63;4968935;28;20047;-67
2022/01/21 00:37:03;;;;;;;1999.90;999.90;;;;;;;-1.61;100.00;161972.94;4970677;28;20502;-67
2022/01/21 00:39:32;;;;;;;1999.90;999.90;;;;;;;-1.68;100.00;161952.41;4968589;28;20153;-66
2022/01/21 00:42:33;;;;;;;1999.90;999.90;;;;;;;-2.04;100.00;161856.84;4969055;28;20137;-67
2022/01/21 00:45:00;;;;;;;1999.90;999.90;;;;;;;-1.42;100.00;162023.41;4965273;28;20047;-68
2022/01/21 00:47:27;;;;;;;1999.90;999.90;;;;;;;-2.10;100.00;161840.47;4969433;28;20294;-67
2022/01/21 00:49:54;;;;;;;1999.90;999.90;;;;;;;-1.86;100.00;161906.03;4968682;28;20098;-69
2022/01/21 00:52:22;;;;;;;1999.90;999.90;;;;;;;-2.04;100.00;161856.84;4964927;28;20346;-69
2022/01/21 00:54:48;;;;;;;1999.90;999.90;;;;;;;-2.13;100.00;161833.63;4970120;28;20490;-68
2022/01/21 00:57:15;;;;;;;1999.90;999.90;;;;;;;-2.19;100.00;161818.66;4970199;28;20428;-69
2022/01/21 00:59:41;;;;;;;1999.90;999.90;;;;;;;-2.30;100.00;161788.63;4972775;28;20105;-68
2022/01/21 01:02:08;;;;;;;1999.90;999.90;;;;;;;-2.15;100.00;161828.19;4974111;28;20097;-69
2022/01/21 01:04:35;;;;;;;1999.90;999.90;;;;;;;-2.33;100.00;161780.44;4973868;28;20082;-69
2022/01/21 01:07:02;;;;;;;1999.90;999.90;;;;;;;-2.14;100.00;161832.28;4974927;28;20078;-68
2022/01/21 01:09:29;;;;;;;1999.90;999.90;;;;;;;-2.40;100.00;161761.31;4972634;28;20104;-68
2022/01/21 01:12:16;;;;;;;1999.90;999.90;;;;;;;-2.35;100.00;161775.00;4971148;28;20055;-69
2022/01/21 01:20:19;;;;;;;1999.90;999.90;;;;;;;-2.30;100.00;161789.97;4976026;28;20082;-66
2022/01/21 01:22:54;;;;;;;1999.90;999.90;;;;;;;-2.25;100.00;161802.25;4971233;28;20424;-66
2022/01/21 01:28:07;;;;;;;1999.90;999.90;;;;;;;-2.25;100.00;161800.91;4972851;28;20055;-67
2022/01/21 01:30:35;;;;;;;1999.90;999.90;;;;;;;-2.45;100.00;161749.03;4970862;28;20113;-67
2022/01/21 01:33:06;;;;;;;1999.90;999.90;;;;;;;-2.42;100.00;161755.88;4971815;28;20074;-67
2022/01/21 01:35:33;;;;;;;1999.90;999.90;;;;;;;-2.14;100.00;161832.28;4972715;28;20051;-67
2022/01/21 01:41:18;;;;;;;1999.90;999.90;;;;;;;-2.13;100.00;161833.63;4971435;28;20069;-67
2022/01/21 01:51:30;;;;;;;1999.90;999.90;;;;;;;-2.25;100.00;161802.25;4971358;28;20059;-67
2022/01/21 01:54:10;;;;;;;1999.90;999.90;;;;;;;-2.36;100.00;161773.59;4971884;28;20118;-67
2022/01/21 01:56:41;;;;;;;1999.90;999.90;;;;;;;-2.00;100.00;161869.13;4972245;28;20526;-67
2022/01/21 01:59:08;;;;;;;1999.90;999.90;;;;;;;-2.54;100.00;161725.84;4971291;28;20082;-67
2022/01/21 02:01:35;;;;;;;1999.90;999.90;;;;;;;-2.61;100.00;161705.38;4979727;28;20105;-67
2022/01/21 02:04:02;;;;;;;1999.90;999.90;;;;;;;-2.61;100.00;161705.38;4971794;28;20055;-67
2022/01/21 02:06:29;;;;;;;1999.90;999.90;;;;;;;-2.51;100.00;161734.03;4971152;28;20101;-67
2022/01/21 02:08:56;;;;;;;1999.90;999.90;;;;;;;-2.68;100.00;161687.63;4971148;28;20078;-67
2022/01/21 02:11:22;;;;;;;1999.90;999.90;;;;;;;-2.66;100.00;161693.09;4972710;28;20081;-67
2022/01/21 02:13:56;;;;;;;1999.90;999.90;;;;;;;-2.80;100.00;161654.88;4970766;28;20093;-67
2022/01/21 02:21:42;;;;;;;1999.90;999.90;;;;;;;-2.44;99.45;161750.38;4971086;28;20101;-68
2022/01/21 02:24:16;;;;;;;1999.90;999.90;;;;;;;-2.62;98.38;161704.03;4971171;28;20047;-68
2022/01/21 02:26:44;;;;;;;1999.90;999.90;;;;;;;-2.80;99.36;161654.88;4971817;28;20059;-67
2022/01/21 02:29:15;;;;;;;1999.90;999.90;;;;;;;-2.77;99.33;161663.06;4970324;28;20518;-67
2022/01/21 02:31:42;;;;;;;1999.90;999.90;;;;;;;-2.71;99.57;161680.84;4964086;28;20102;-67
2022/01/21 02:34:09;;;;;;;1999.90;999.90;;;;;;;-2.41;98.59;161758.56;4971117;28;20431;-68
2022/01/21 02:36:36;;;;;;;1999.90;999.90;;;;;;;-2.19;97.86;161818.66;4971313;28;20082;-67
2022/01/21 02:39:03;;;;;;;1999.90;999.90;;;;;;;-2.41;98.46;161758.56;4969571;28;20423;-67
2022/01/21 02:41:30;;;;;;;1999.90;999.90;;;;;;;-2.81;100.00;161653.53;4971089;28;20344;-67
2022/01/21 02:43:56;;;;;;;1999.90;999.90;;;;;;;-2.49;100.00;161739.50;4970954;28;20055;-68
2022/01/21 02:46:23;;;;;;;1999.90;999.90;;;;;;;-2.35;99.08;161776.34;4972475;28;20051;-67
2022/01/21 02:48:50;;;;;;;1999.90;999.90;;;;;;;-2.58;99.05;161714.91;4974536;28;20038;-67
2022/01/21 02:51:17;;;;;;;1999.90;999.90;;;;;;;-2.12;97.57;161836.38;4970932;28;20432;-67
2022/01/21 02:56:12;;;;;;;1999.90;999.90;;;;;;;-2.03;97.08;161860.94;4971316;28;20046;-68
2022/01/21 02:58:39;;;;;;;1999.90;999.90;;;;;;;-2.24;96.95;161803.63;4969702;28;20047;-67
2022/01/21 03:01:07;;;;;;;1999.90;999.90;;;;;;;-2.68;98.33;161687.63;4969860;28;20051;-68
2022/01/21 03:03:34;;;;;;;1999.90;999.90;;;;;;;-2.38;97.96;161768.16;4970417;28;20129;-68
2022/01/21 03:06:01;;;;;;;1999.90;999.90;;;;;;;-2.50;96.73;161735.38;4969574;28;20748;-68
2022/01/21 03:08:29;;;;;;;1999.90;999.90;;;;;;;-2.30;97.12;161789.97;4969819;28;20206;-68
2022/01/21 03:10:56;;;;;;;1999.90;999.90;;;;;;;-2.23;96.17;161807.72;4969872;28;20050;-68
2022/01/21 03:13:23;;;;;;;1999.90;999.90;;;;;;;-2.12;94.98;161836.38;4969483;28;20106;-68
2022/01/21 03:15:50;;;;;;;1999.90;999.90;;;;;;;-2.63;96.40;161699.94;4968345;28;20087;-67
2022/01/21 03:18:18;;;;;;;1999.90;999.90;;;;;;;-2.45;97.63;161749.03;4969981;28;20273;-68
2022/01/21 03:20:45;;;;;;;1999.90;999.90;;;;;;;-2.42;97.58;161755.88;4970700;28;20106;-68
2022/01/21 03:23:16;;;;;;;1999.90;999.90;;;;;;;-2.80;99.14;161654.88;4969031;28;20093;-67
2022/01/21 03:25:44;;;;;;;1999.90;999.90;;;;;;;-2.52;97.79;161731.28;4969638;28;20451;-67
2022/01/21 03:28:12;;;;;;;1999.90;999.90;;;;;;;-2.53;97.13;161727.19;4971316;28;20055;-68
2022/01/21 03:30:39;;;;;;;1999.90;999.90;;;;;;;-2.21;95.98;161811.81;4968379;28;20051;-68
2022/01/21 03:33:06;;;;;;;1999.90;999.90;;;;;;;-2.60;96.85;161708.13;4969125;28;20090;-68
2022/01/21 03:35:33;;;;;;;1999.90;999.90;;;;;;;-2.22;95.74;161809.09;4970126;28;20106;-68
2022/01/21 03:38:00;;;;;;;1999.90;999.90;;;;;;;-2.43;95.97;161754.47;4969530;28;20470;-68
2022/01/21 03:40:26;;;;;;;1999.90;999.90;;;;;;;-2.31;96.10;161785.88;4969249;28;20459;-68
2022/01/21 03:42:53;;;;;;;1999.90;999.90;;;;;;;-2.51;96.20;161732.69;4968076;28;20529;-67
2022/01/21 03:45:19;;;;;;;1999.90;999.90;;;;;;;-2.24;95.87;161803.63;4968697;28;20144;-68
2022/01/21 03:47:46;;;;;;;1999.90;999.90;;;;;;;-2.26;95.24;161799.56;4970216;28;20054;-68
2022/01/21 03:50:23;;;;;;;1999.90;999.90;;;;;;;-2.66;95.51;161693.09;4969680;28;20082;-67
2022/01/21 03:52:50;;;;;;;1999.90;999.90;;;;;;;-2.61;95.93;161706.72;4970202;28;20109;-68
2022/01/21 03:55:17;;;;;;;1999.90;999.90;;;;;;;-2.55;95.42;161721.75;4968518;28;20103;-67
2022/01/21 03:57:44;;;;;;;1999.90;999.90;;;;;;;-2.32;94.11;161784.53;4969918;28;20078;-67
2022/01/21 04:00:17;;;;;;;1999.90;999.90;;;;;;;-2.08;93.31;161845.91;4970025;28;20059;-68
2022/01/21 04:02:44;;;;;;;1999.90;999.90;;;;;;;-2.15;92.96;161829.53;4969701;28;20105;-68
2022/01/21 04:05:11;;;;;;;1999.90;999.90;;;;;;;-2.08;92.29;161845.91;4969658;28;20062;-68
2022/01/21 04:07:38;;;;;;;1999.90;999.90;;;;;;;-2.18;92.54;161821.34;4970793;28;20086;-67
2022/01/21 04:10:05;;;;;;;1999.90;999.90;;;;;;;-2.81;94.08;161653.53;4968430;28;20078;-66
2022/01/21 04:12:32;;;;;;;1999.90;999.90;;;;;;;-2.84;93.97;161645.38;4969284;28;20082;-67
2022/01/21 04:14:59;;;;;;;1999.90;999.90;;;;;;;-2.99;93.61;161605.81;4970102;28;20407;-66
2022/01/21 04:17:26;;;;;;;1999.90;999.90;;;;;;;-2.96;93.75;161614.00;4969218;28;20050;-67
2022/01/21 04:19:53;;;;;;;1999.90;999.90;;;;;;;-2.83;93.13;161649.47;4969408;28;20116;-67
2022/01/21 04:22:19;;;;;;;1999.90;999.90;;;;;;;-2.81;93.21;161652.16;4971024;28;20054;-67
2022/01/21 04:24:48;;;;;;;1999.90;999.90;;;;;;;-2.80;92.74;161656.25;4969284;28;20137;-68
2022/01/21 04:27:16;;;;;;;1999.90;999.90;;;;;;;-2.47;91.34;161743.59;4969082;28;20082;-67
2022/01/21 04:29:43;;;;;;;1999.90;999.90;;;;;;;-2.23;90.80;161807.72;4969436;28;20494;-67
2022/01/21 04:32:10;;;;;;;1999.90;999.90;;;;;;;-2.06;89.99;161851.41;4971519;28;20090;-67
2022/01/21 04:34:37;;;;;;;1999.90;999.90;;;;;;;-1.85;89.12;161908.72;4972847;28;20077;-68
2022/01/21 04:37:08;;;;;;;1999.90;999.90;;;;;;;-2.13;89.11;161835.03;4974391;28;20051;-67
2022/01/21 04:39:40;;;;;;;1999.90;999.90;;;;;;;-2.84;91.46;161645.38;4972096;28;20090;-67
2022/01/21 04:47:38;;;;;;;1999.90;999.90;;;;;;;-2.87;92.09;161638.53;4972465;28;20050;-67
2022/01/21 04:50:10;;;;;;;1999.90;999.90;;;;;;;-2.69;91.33;161684.94;4970831;28;20078;-67
2022/01/21 04:52:36;;;;;;;1999.90;999.90;;;;;;;-2.72;91.32;161678.09;4970568;28;20051;-67
2022/01/21 04:55:04;;;;;;;1999.90;999.90;;;;;;;-2.37;90.84;161770.84;4972635;28;20333;-67
2022/01/21 04:57:30;;;;;;;1999.90;999.90;;;;;;;-2.51;90.72;161732.69;4968594;28;20110;-67
2022/01/21 04:59:57;;;;;;;1999.90;999.90;;;;;;;-2.33;89.54;161780.44;4971931;28;20098;-67
2022/01/21 05:02:25;;;;;;;1999.90;999.90;;;;;;;-2.25;90.42;161802.25;4972848;28;20089;-67
2022/01/21 05:04:52;;;;;;;1999.90;999.90;;;;;;;-2.38;90.11;161766.75;4968572;28;20043;-67
2022/01/21 05:07:22;;;;;;;1999.90;999.90;;;;;;;-2.61;90.89;161706.72;4972233;28;20109;-67
2022/01/21 05:09:49;;;;;;;1999.90;999.90;;;;;;;-2.50;90.57;161735.38;4972521;28;20498;-67
2022/01/21 05:12:19;;;;;;;1999.90;999.90;;;;;;;-2.22;89.59;161809.09;4971464;28;20574;-67
2022/01/21 05:15:04;;;;;;;1999.90;999.90;;;;;;;-2.06;89.33;161851.41;4972845;28;20082;-67
2022/01/21 05:17:31;;;;;;;1999.90;999.90;;;;;;;-2.22;89.30;161810.47;4972472;28;20096;-67
2022/01/21 05:19:57;;;;;;;1999.90;999.90;;;;;;;-2.27;89.99;161795.47;4975177;28;20074;-67
2022/01/21 05:22:24;;;;;;;1999.90;999.90;;;;;;;-2.42;90.41;161755.88;4970478;28;20214;-68
2022/01/21 05:24:50;;;;;;;1999.90;999.90;;;;;;;-2.56;90.60;161720.41;4971380;28;20093;-67
2022/01/21 05:27:17;;;;;;;1999.90;999.90;;;;;;;-2.60;90.50;161708.13;4970963;28;20503;-67
2022/01/21 05:29:43;;;;;;;1999.90;999.90;;;;;;;-2.30;90.08;161789.97;4971298;28;20050;-67
2022/01/21 05:32:10;;;;;;;1999.90;999.90;;;;;;;-2.58;90.82;161714.91;4972821;28;20093;-67
2022/01/21 05:34:36;;;;;;;1999.90;999.90;;;;;;;-2.61;90.74;161705.38;4971166;28;20159;-67
2022/01/21 05:37:07;;;;;;;1999.90;999.90;;;;;;;-2.63;91.44;161699.94;4972297;28;20377;-67
2022/01/21 05:39:33;;;;;;;1999.90;999.90;;;;;;;-2.74;91.23;161671.25;4971114;28;20058;-67
2022/01/21 05:42:02;;;;;;;1999.90;999.90;;;;;;;-2.73;92.03;161675.34;4969219;28;20134;-67
2022/01/21 05:47:00;;;;;;;1999.90;999.90;;;;;;;-2.66;91.61;161693.09;4971298;28;20047;-67
2022/01/21 05:49:29;;;;;;;1999.90;999.90;;;;;;;-2.63;91.18;161699.94;4970107;28;20050;-68
2022/01/21 05:52:05;;;;;;;1999.90;999.90;;;;;;;-2.40;90.95;161762.66;4972108;28;20070;-67
2022/01/21 05:54:32;;;;;;;1999.90;999.90;;;;;;;-1.79;89.04;161925.16;4971962;28;20062;-67
2022/01/21 05:57:01;;;;;;;1999.90;999.90;;;;;;;-2.71;90.74;161679.44;4969696;28;20074;-67
2022/01/21 05:59:28;;;;;;;1999.90;999.90;;;;;;;-2.24;90.48;161805.00;4970206;28;20121;-67
2022/01/21 06:01:55;;;;;;;1999.90;999.90;;;;;;;-1.84;88.85;161911.47;4969230;28;20094;-67
2022/01/21 06:04:21;;;;;;;1999.90;999.90;;;;;;;-1.96;88.78;161878.72;4968805;28;20363;-67
2022/01/21 06:06:48;;;;;;;1999.90;999.90;;;;;;;-2.36;89.85;161772.25;4970248;28;20325;-67
2022/01/21 06:09:14;;;;;;;1999.90;999.90;;;;;;;-2.07;89.69;161848.66;4970351;28;20090;-67
2022/01/21 06:11:41;;;;;;;1999.90;999.90;;;;;;;-2.49;90.61;161739.50;4966799;28;20051;-66
2022/01/21 06:14:07;;;;;;;1999.90;999.90;;;;;;;-2.04;90.54;161856.84;4969173;28;20086;-67
2022/01/21 06:16:35;;;;;;;1999.90;999.90;;;;;;;-2.03;90.04;161860.94;4969396;28;20083;-67
2022/01/21 06:19:02;;;;;;;1999.90;999.90;;;;;;;-1.97;90.09;161877.31;4968848;28;20058;-66
2022/01/21 06:21:28;;;;;;;1999.90;999.90;;;;;;;-2.00;90.17;161867.78;4970380;28;20082;-68
2022/01/21 06:23:55;;;;;;;1999.90;999.90;;;;;;;-1.83;89.52;161914.22;4970819;28;20050;-69
2022/01/21 06:26:21;;;;;;;1999.90;999.90;;;;;;;-2.15;90.54;161828.19;4969581;28;20054;-68
2022/01/21 06:28:48;;;;;;;1999.90;999.90;;;;;;;-1.78;90.05;161926.50;4969870;28;20050;-69
2022/01/21 06:31:15;;;;;;;1999.90;999.90;;;;;;;-1.66;89.78;161959.25;4968988;28;20042;-67
2022/01/21 06:33:41;;;;;;;1999.90;999.90;;;;;;;-2.29;90.79;161791.38;4968589;28;20054;-67
2022/01/21 06:36:08;;;;;;;1999.90;999.90;;;;;;;-2.37;91.23;161769.50;4969840;28;20817;-67
2022/01/21 06:38:35;;;;;;;1999.90;999.90;;;;;;;-2.13;91.24;161835.03;4969188;28;20435;-67
2022/01/21 06:41:02;;;;;;;1999.90;999.90;;;;;;;-1.95;90.44;161881.41;4968612;28;20073;-68
2022/01/21 06:43:29;;;;;;;1999.90;999.90;;;;;;;-1.75;89.68;161933.34;4968077;28;20510;-68
2022/01/21 06:45:56;;;;;;;1999.90;999.90;;;;;;;-1.98;89.26;161873.22;4970631;28;20518;-67
2022/01/21 06:48:22;;;;;;;1999.90;999.90;;;;;;;-2.07;90.84;161848.66;4969574;28;20990;-67
2022/01/21 06:50:49;;;;;;;1999.90;999.90;;;;;;;-2.00;90.36;161869.13;4969474;28;20456;-67
2022/01/21 06:53:15;;;;;;;1999.90;999.90;;;;;;;-1.98;90.60;161874.63;4971208;28;20474;-67
2022/01/21 06:55:41;;;;;;;1999.90;999.90;;;;;;;-1.57;89.49;161982.47;4968717;28;20054;-68
2022/01/21 06:58:08;;;;;;;1999.90;999.90;;;;;;;-1.66;89.43;161959.25;4970874;28;20089;-68
2022/01/21 07:00:34;;;;;;;1999.90;999.90;;;;;;;-1.78;90.30;161927.84;4969436;28;20070;-67
2022/01/21 07:03:01;;;;;;;1999.90;999.90;;;;;;;-1.84;90.78;161911.47;4969519;28;20057;-68
2022/01/21 07:05:31;;;;;;;1999.90;999.90;;;;;;;-2.25;91.46;161802.25;4971028;28;20109;-67
2022/01/21 07:07:58;;;;;;;1999.90;999.90;;;;;;;-2.14;91.66;161832.28;4970457;28;20080;-68
2022/01/21 07:10:25;;;;;;;1999.90;999.90;;;;;;;-1.83;91.38;161914.22;4969427;28;20066;-67
2022/01/21 07:12:52;;;;;;;1999.90;999.90;;;;;;;-1.98;92.09;161873.22;4970197;28;20101;-67
2022/01/21 07:15:19;;;;;;;1999.90;999.90;;;;;;;-1.98;91.46;161873.22;4970609;28;20147;-67
2022/01/21 07:17:48;;;;;;;1999.90;999.90;;;;;;;-1.98;92.04;161874.63;4969368;28;20042;-67
2022/01/21 07:20:16;;;;;;;1999.90;999.90;;;;;;;-1.64;91.62;161963.34;4970724;28;20444;-68
2022/01/21 07:22:42;;;;;;;1999.90;999.90;;;;;;;-1.08;89.41;162112.22;4977623;28;20078;-68
2022/01/21 07:25:09;;;;;;;1999.90;999.90;;;;;;;-1.21;88.87;162076.69;4969221;28;20050;-68
2022/01/21 07:27:36;;;;;;;1999.90;999.90;;;;;;;-1.31;88.92;162050.72;4969912;28;20078;-67
2022/01/21 07:30:04;;;;;;;1999.90;999.90;;;;;;;-1.59;90.35;161977.03;4971089;28;20066;-67
2022/01/21 07:32:31;;;;;;;1999.90;999.90;;;;;;;-1.52;90.65;161996.16;4970290;28;20082;-68
2022/01/21 07:34:58;;;;;;;1999.90;999.90;;;;;;;-1.70;91.30;161948.31;4969776;28;20110;-67
2022/01/21 07:37:24;;;;;;;1999.90;999.90;;;;;;;-1.85;91.74;161908.72;4970387;28;20055;-67
2022/01/21 07:39:51;;;;;;;1999.90;999.90;;;;;;;-1.75;91.76;161933.34;4969945;28;20082;-67
2022/01/21 07:42:17;;;;;;;1999.90;999.90;;;;;;;-1.79;92.18;161925.16;4969494;28;20081;-67
2022/01/21 07:44:44;;;;;;;1999.90;999.90;;;;;;;-1.70;91.92;161946.97;4970548;28;20111;-67
2022/01/21 07:47:10;;;;;;;1999.90;999.90;;;;;;;-1.65;91.25;161960.63;4968748;28;20109;-67
2022/01/21 07:49:37;;;;;;;1999.90;999.90;;;;;;;-1.64;92.15;161963.34;4969323;28;20097;-67
2022/01/21 07:52:03;;;;;;;1999.90;999.90;;;;;;;-1.90;92.53;161893.75;4970207;28;20055;-67
2022/01/21 07:54:30;;;;;;;1999.90;999.90;;;;;;;-1.77;92.37;161930.59;4968903;28;20055;-67
2022/01/21 07:56:56;;;;;;;1999.90;999.90;;;;;;;-1.44;91.91;162016.63;4969133;28;20078;-68
2022/01/21 07:59:23;;;;;;;1999.90;999.90;;;;;;;-1.52;91.78;161996.16;4969341;28;20435;-67
2022/01/21 08:01:49;;;;;;;1999.90;999.90;;;;;;;-1.15;91.08;162094.44;4968509;28;20043;-68
2022/01/21 08:04:16;;;;;;;1999.90;999.90;;;;;;;-1.42;91.94;162023.41;4968244;28;20053;-67
2022/01/21 08:06:43;;;;;;;1999.90;999.90;;;;;;;-1.30;92.08;162053.47;4969946;28;20403;-67
2022/01/21 08:09:09;;;;;;;1999.90;999.90;;;;;;;-1.46;92.56;162011.13;4969774;28;20099;-68
2022/01/21 08:11:36;;;;;;;1999.90;999.90;;;;;;;-1.14;92.56;162097.19;4968672;28;20092;-67
2022/01/21 08:14:03;;;;;;;1999.90;999.90;;;;;;;-1.41;93.01;162024.81;4969359;28;20086;-67
2022/01/21 08:16:30;;;;;;;1999.90;999.90;;;;;;;-1.49;92.33;162004.34;4969088;28;20203;-67
2022/01/21 08:18:56;;;;;;;1999.90;999.90;;;;;;;-1.57;93.91;161982.47;4969028;28;20054;-68
2022/01/21 08:21:23;;;;;;;1999.90;999.90;;;;;;;-1.25;92.71;162067.13;4969315;28;20075;-67
2022/01/21 08:23:52;;;;;;;1999.90;999.90;;;;;;;-1.30;92.52;162054.81;4977304;28;20407;-68
2022/01/21 08:26:24;;;;;;;1999.90;999.90;;;;;;;-1.53;92.52;161993.41;4970290;28;20181;-67
2022/01/21 08:28:53;;;;;;;1999.90;999.90;;;;;;;-1.65;93.11;161962.00;4968958;28;20065;-67
2022/01/21 08:31:20;;;;;;;1999.90;999.90;;;;;;;-1.58;93.48;161978.38;4968947;28;20097;-67
2022/01/21 08:33:46;;;;;;;1999.90;999.90;;;;;;;-1.28;91.86;162058.91;4968424;28;20463;-67
2022/01/21 08:36:13;;;;;;;1999.90;999.90;;;;;;;-0.99;90.98;162135.44;4969352;28;20392;-68
2022/01/21 08:38:40;;;;;;;1999.90;999.90;;;;;;;-1.07;90.89;162114.97;4969017;28;20055;-68
2022/01/21 08:41:07;;;;;;;1999.90;999.90;;;;;;;-0.89;90.17;162162.78;4969511;28;20047;-67
2022/01/21 08:43:33;;;;;;;1999.90;999.90;;;;;;;-1.56;90.76;161985.22;4971256;28;20279;-67
2022/01/21 08:46:00;;;;;;;1999.90;999.90;;;;;;;-1.55;92.25;161987.91;4971241;28;20102;-67
2022/01/21 08:48:27;;;;;;;1999.90;999.90;;;;;;;-1.14;90.94;162097.19;4969445;28;20053;-67
2022/01/21 08:50:55;;;;;;;1999.90;999.90;;;;;;;-1.26;90.92;162064.41;4968901;28;20078;-67
2022/01/21 08:53:38;;;;;;;1999.90;999.90;;;;;;;-1.58;92.22;161978.38;4967913;28;20054;-67
2022/01/21 08:56:08;;;;;;;1999.90;999.90;;;;;;;-1.44;92.64;162016.63;4968193;28;20054;-67
2022/01/21 08:58:34;;;;;;;1999.90;999.90;;;;;;;-1.41;93.05;162024.81;4971536;28;20078;-67
2022/01/21 09:01:01;;;;;;;1999.90;999.90;;;;;;;-1.33;93.47;162046.63;4969396;28;20085;-67
2022/01/21 09:03:28;;;;;;;1999.90;999.90;;;;;;;-0.87;91.65;162168.22;4967922;28;20053;-67
2022/01/21 09:05:55;;;;;;;1999.90;999.90;;;;;;;-1.43;93.23;162020.72;4968689;28;20450;-68
2022/01/21 09:08:25;;;;;;;1999.90;999.90;;;;;;;-1.65;94.20;161962.00;4969999;28;20192;-68
2022/01/21 09:10:53;;;;;;;1999.90;999.90;;;;;;;-1.42;94.55;162023.41;4967855;28;20109;-68
2022/01/21 09:13:22;;;;;;;1999.90;999.90;;;;;;;-1.45;94.40;162015.22;4968667;28;20086;-68
2022/01/21 09:15:49;;;;;;;1999.90;999.90;;;;;;;-0.87;93.12;162168.22;4969856;28;20105;-68
2022/01/21 09:18:20;;;;;;;1999.90;999.90;;;;;;;-0.66;92.08;162222.88;4969625;28;20051;-68
2022/01/21 09:20:47;;;;;;;1999.90;999.90;;;;;;;-1.10;92.74;162108.13;4971831;28;20137;-67
2022/01/21 09:23:14;;;;;;;1999.90;999.90;;;;;;;-1.44;93.28;162017.97;4977035;28;20101;-67
2022/01/21 09:25:40;;;;;;;1999.90;999.90;;;;;;;-1.40;94.19;162026.16;4972220;28;20046;-68
2022/01/21 09:28:07;;;;;;;1999.90;999.90;;;;;;;-1.32;94.57;162049.38;4971351;28;20109;-68
2022/01/21 09:30:34;;;;;;;1999.90;999.90;;;;;;;-1.34;93.89;162042.53;4971504;28;20098;-68
2022/01/21 09:33:00;;;;;;;1999.90;999.90;;;;;;;-1.16;93.15;162091.75;4972253;28;20051;-68
2022/01/21 09:35:27;;;;;;;1999.90;999.90;;;;;;;-1.34;93.86;162043.94;4971643;28;20043;-68
2022/01/21 09:37:53;;;;;;;1999.90;999.90;;;;;;;-1.26;92.69;162064.41;4971818;28;20459;-69
2022/01/21 09:40:45;;;;;;;1999.90;999.90;;;;;;;-0.76;90.82;162198.31;4972241;28;20055;-69
2022/01/21 09:43:13;;;;;;;1999.90;999.90;;;;;;;-0.97;91.04;162140.88;4969134;28;20058;-69
2022/01/21 09:45:41;;;;;;;1999.90;999.90;;;;;;;-0.96;90.80;162143.63;4971815;28;20133;-69
2022/01/21 09:48:10;;;;;;;1999.90;999.90;;;;;;;-1.10;91.55;162106.78;4972894;28;20438;-69
2022/01/21 09:50:37;;;;;;;1999.90;999.90;;;;;;;-1.27;91.50;162063.00;4970841;28;20050;-69
2022/01/21 09:53:06;;;;;;;1999.90;999.90;;;;;;;-1.02;90.69;162127.25;4971157;28;20511;-69
2022/01/21 09:55:32;;;;;;;1999.90;999.90;;;;;;;-0.84;89.53;162176.41;4974869;28;20121;-69
2022/01/21 09:57:59;;;;;;;1999.90;999.90;;;;;;;-1.03;88.73;162124.50;4970973;28;20047;-69
2022/01/21 10:00:27;;;;;;;1999.90;999.90;;;;;;;-1.14;88.73;162095.84;4970678;28;20054;-69
2022/01/21 10:02:56;;;;;;;1999.90;999.90;;;;;;;-1.09;88.75;162110.88;4973351;28;20055;-69
2022/01/21 10:05:23;;;;;;;1999.90;999.90;;;;;;;-1.07;88.88;162116.31;4970754;28;20165;-69
2022/01/21 10:07:50;;;;;;;1999.90;999.90;;;;;;;-0.81;88.30;162184.59;4970531;28;20130;-69
2022/01/21 10:10:17;;;;;;;1999.90;999.90;;;;;;;-1.11;88.21;162105.38;4972539;28;20447;-69
2022/01/21 10:12:49;;;;;;;1999.90;999.90;;;;;;;-0.81;87.22;162183.25;4970698;28;20050;-69
2022/01/21 10:15:17;;;;;;;1999.90;999.90;;;;;;;-1.19;87.23;162082.16;4971995;28;20050;-69
2022/01/21 10:18:12;;;;;;;1999.90;999.90;;;;;;;-1.07;88.06;162114.97;4971206;28;20058;-69
2022/01/21 10:21:12;;;;;;;1999.90;999.90;;;;;;;-1.42;87.67;162022.06;4970416;28;20396;-69
2022/01/21 10:23:41;;;;;;;1999.90;999.90;;;;;;;-1.32;87.60;162049.38;4972325;28;20046;-68
2022/01/21 10:26:13;;;;;;;1999.90;999.90;;;;;;;-1.17;87.53;162087.63;4970882;28;20058;-68
2022/01/21 10:28:41;;;;;;;;;;;;;;;-0.97;87.19;162140.88;4979807;28;20258;-69
2022/01/21 10:31:16;;;;;;;1999.90;999.90;;;;;;;-0.62;85.92;162233.81;4970975;28;19926;-69
2022/01/21 10:33:49;;;;;;;1999.90;999.90;;;;;;;-0.78;85.19;162191.44;4963802;28;20051;-69
2022/01/21 10:36:26;;;;;;;1999.90;999.90;;;;;;;-0.60;85.49;162239.28;4970819;28;20054;-69
2022/01/21 10:39:05;;;;;;;1999.90;999.90;;;;;;;-0.52;84.64;162259.75;4971280;28;20522;-69
2022/01/21 10:41:34;;;;;;;1999.90;999.90;;;;;;;-0.65;84.49;162226.97;4970894;28;20101;-69
2022/01/21 10:44:12;;;;;;;1999.90;999.90;;;;;;;-1.02;85.27;162128.59;4970957;28;20104;-69
2022/01/21 10:46:42;;;;;;;1999.90;999.90;;;;;;;-1.13;86.52;162099.94;4985059;28;20055;-68
2022/01/21 10:49:13;;;;;;;1999.90;999.90;;;;;;;-0.95;85.11;162146.38;4970112;28;20306;-67
2022/01/21 10:51:50;;;;;;;1999.90;999.90;;;;;;;-0.87;85.46;162168.22;4969614;28;20098;-68
2022/01/21 10:54:23;;;;;;;1999.90;999.90;;;;;;;-0.99;85.61;162135.44;4964055;28;20047;-68
2022/01/21 10:57:12;;;;;;;1999.90;999.90;;;;;;;-1.03;86.06;162124.50;4971382;28;20046;-68
2022/01/21 11:00:07;;;;;;;1999.90;999.90;;;;;;;-0.44;83.83;162281.66;4969724;28;20046;-68
2022/01/21 11:02:41;;;;;;;1999.90;999.90;;;;;;;-0.63;83.80;162232.44;4970482;28;20055;-68
2022/01/21 11:05:13;;;;;;;1999.90;999.90;;;;;;;-0.42;82.77;162287.09;4971172;28;20525;-68
2022/01/21 11:07:54;;;;;;;1999.90;999.90;;;;;;;-0.84;83.73;162176.41;4971003;28;20054;-67
2022/01/21 11:10:33;;;;;;;1999.90;999.90;;;;;;;-0.64;82.85;162228.31;4965635;28;20429;-67
2022/01/21 11:13:20;;;;;;;1999.90;999.90;;;;;;;-0.48;82.88;162270.69;4969991;28;20092;-68
2022/01/21 11:15:53;;;;;;;1999.90;999.90;;;;;;;-0.28;81.72;162325.38;4966570;28;20078;-68
2022/01/21 11:18:51;;;;;;;1999.90;999.90;;;;;;;-0.42;81.72;162288.44;4971634;28;20050;-68
2022/01/21 11:21:18;;;;;;;1999.90;999.90;;;;;;;0.25;80.22;162466.16;4969842;28;20054;-68
2022/01/21 11:23:44;;;;;;;1999.90;999.90;;;;;;;-0.18;80.60;162351.31;4977063;28;20089;-68
2022/01/21 11:26:14;;;;;;;1999.90;999.90;;;;;;;-0.43;80.69;162284.34;4970922;28;20444;-68
2022/01/21 11:28:49;;;;;;;1999.90;999.90;;;;;;;-0.35;80.45;162306.25;4983397;28;20086;-69
2022/01/21 11:31:22;;;;;;;1999.90;999.90;;;;;;;-0.10;79.94;162371.88;4969916;28;20109;-68
2022/01/21 11:34:07;;;;;;;1999.90;999.90;;;;;;;-0.19;79.79;162349.97;4970081;28;20514;-68
2022/01/21 11:36:34;;;;;;;1999.90;999.90;;;;;;;-0.22;80.05;162341.78;4970235;28;20121;-68
2022/01/21 11:39:02;;;;;;;1999.90;999.90;;;;;;;0.04;79.13;162410.13;4968987;28;20182;-68
2022/01/21 11:41:29;;;;;;;1999.90;999.90;;;;;;;0.14;78.86;162436.13;4965012;28;20070;-69